Latest Coastal Weather Observations for Carnarvon

IDW60701

Issued at 7:13 am WST Saturday 21 October 2017 (issued every 10 minutes, with the page automatically refreshed every 10 minutes)

About coastal observations | Map of coastal stations | Coastal observations for WA | Marine services | Other Formats
Station Details ID: 006011 Name: CARNARVON AIRPORT Lat: -24.89 Lon: 113.67 Height: 4.0 m
Data from the previous 72 hours. | See also: Recent months at Carnarvon
Date/Time
WST
Temp
°C
Wind Pressure Rain since
9am
mm
Weather Cloud Vis
km
Sea
Height
m
Swell
Dir  Spd
kts
Gust
kts
hPa Trend Height
m
Period
s
Dir
21/07:00am 21.1 S 5 6 1016.2 - 0.0 - Partly cloudy 9 - - - -
21/06:30am 20.9 S 5 7 1016.1 - 0.0 - Partly cloudy 9 - - - -
21/06:00am 20.7 SSE 6 8 1015.8 - 0.0 - Mostly cloudy 9 - - - -
21/05:30am 20.8 SSE 9 10 1015.3 - 0.0 - Cloudy 9 - - - -
21/05:09am 20.8 S 8 11 1015.1 - 0.0 - Cloudy 9 - - - -
21/05:00am 20.7 SSW 9 13 1014.8 - 0.0 - Partly cloudy 9 - - - -
21/04:30am 20.5 SSW 7 8 1014.3 - 0.0 - Partly cloudy 8 - - - -
21/04:00am 20.6 SW 10 13 1014.2 - 0.0 - Partly cloudy 8 - - - -
21/03:44am 20.5 SW 8 10 1013.9 - 0.0 - Partly cloudy 8 - - - -
21/03:30am 20.5 SW 7 10 1013.9 - 0.0 - - 7 - - - -
21/03:00am 20.7 WSW 12 15 1013.5 - 0.0 - - 8 - - - -
21/02:30am 20.7 WSW 11 16 1013.8 - 0.0 - - 8 - - - -
21/02:00am 20.7 WSW 12 15 1014.0 - 0.0 - - 8 - - - -
21/01:30am 20.8 WSW 9 12 1014.6 - 0.0 - - 8 - - - -
21/01:00am 20.8 W 7 9 1014.9 - 0.0 - - 8 - - - -
21/12:30am 20.9 W 9 11 1015.0 - 0.0 - - 8 - - - -
21/12:00am 20.8 W 7 10 1015.3 - 0.0 - - 7 - - - -
 
Date/Time
WST
Temp
°C
Wind Pressure Rain since
9am
mm
Weather Cloud Vis
km
Sea
Height
m
Swell
Dir  Spd
kts
Gust
kts
hPa Trend Height
m
Period
s
Dir
20/11:30pm 20.8 W 9 12 1015.6 - 0.0 - Partly cloudy 7 - - - -
20/11:00pm 20.9 W 8 11 1016.0 - 0.0 - Partly cloudy 7 - - - -
20/10:42pm 20.9 W 8 11 1016.2 - 0.0 - Partly cloudy 7 - - - -
20/10:30pm 20.9 W 8 10 1016.3 - 0.0 - Partly cloudy 7 - - - -
20/10:16pm 21.0 W 8 11 1016.5 - 0.0 - Partly cloudy 7 - - - -
20/10:00pm 21.0 W 6 9 1016.7 - 0.0 - Partly cloudy 7 - - - -
20/09:58pm 21.0 W 7 11 1016.8 - 0.0 - Partly cloudy 7 - - - -
20/09:37pm 21.1 WNW 6 8 1016.8 - 0.0 - Partly cloudy 7 - - - -
20/09:30pm 21.1 W 8 12 1016.8 - 0.0 - Partly cloudy 7 - - - -
20/09:00pm 21.2 W 9 13 1016.6 - 0.0 - - 7 - - - -
20/08:30pm 21.3 WNW 8 11 1016.5 - 0.0 - - 7 - - - -
20/08:00pm 21.5 WNW 11 14 1016.4 - 0.0 - - 8 - - - -
20/07:30pm 21.7 WNW 10 13 1016.0 - 0.0 - - 8 - - - -
20/07:24pm 21.7 WNW 10 13 1015.9 - 0.0 - - 8 - - - -
20/07:00pm 22.0 NW 10 13 1015.5 - 0.0 - - 10 - - - -
20/06:30pm 22.6 NW 10 12 1015.1 - 0.0 - - 10 - - - -
20/06:00pm 23.7 NNW 12 15 1014.9 - 0.0 - - 10 - - - -
20/05:30pm 24.7 NW 14 17 1014.4 - 0.0 - - 10 - - - -
20/05:00pm 26.9 WNW 10 12 1013.9 - 0.0 - - 10 - - - -
20/04:30pm 28.0 W 8 10 1013.5 - 0.0 - - 10 - - - -
20/04:00pm 28.3 NW 11 15 1013.6 - 0.0 - - 10 - - - -
20/03:30pm 27.9 NW 14 18 1013.5 - 0.0 - - 10 - - - -
20/03:00pm 28.5 NW 15 20 1013.6 - 0.0 Fine Clear 25 - - - -
20/02:30pm 28.0 NW 17 23 1013.6 - 0.0 - - 10 - - - -
20/02:00pm 29.3 WNW 16 20 1013.3 - 0.0 - - 10 - - - -
20/01:30pm 31.9 WNW 14 18 1013.3 - 0.0 - - 10 - - - -
20/01:00pm 32.8 NW 15 19 1013.2 - 0.0 - - 10 - - - -
20/12:30pm 34.1 NW 13 17 1013.4 - 0.0 - - 10 - - - -
20/12:00pm 34.2 N 12 18 1013.6 - 0.0 - - 10 - - - -
20/11:30am 34.6 N 13 18 1013.8 - 0.0 - - 10 - - - -
20/11:00am 34.2 NNE 16 22 1013.9 - 0.0 - - 10 - - - -
20/10:30am 32.7 NNE 17 22 1014.2 - 0.0 - - 10 - - - -
20/10:00am 31.2 NNE 17 22 1014.3 - 0.0 - - 10 - - - -
20/09:30am 30.2 NNE 17 20 1014.2 - 0.0 - - 10 - - - -
20/09:00am 29.1 NNE 13 21 1014.3 - 0.0 Fine Clear 18 - - - -
20/08:30am 27.0 NE 11 14 1014.2 - 0.0 - - 10 - - - -
20/08:00am 25.7 ENE 9 11 1013.9 - 0.0 - - 10 - - - -
20/07:30am 24.0 ESE 7 9 1013.9 - 0.0 - - 10 - - - -
20/07:00am 22.0 SSE 8 11 1013.7 - 0.0 - - 10 - - - -
20/06:30am 18.7 S 7 9 1013.6 - 0.0 - - 10 - - - -
20/06:00am 16.5 S 6 7 1013.1 - 0.0 - - 10 - - - -
20/05:30am 17.6 S 8 9 1012.9 - 0.0 - - 10 - - - -
20/05:00am 18.0 S 8 10 1012.7 - 0.0 - - 10 - - - -
20/04:30am 18.3 S 9 11 1012.6 - 0.0 - - 10 - - - -
20/04:00am 18.5 S 11 14 1012.6 - 0.0 - - 10 - - - -
20/03:30am 18.7 S 11 15 1012.7 - 0.0 - - 10 - - - -
20/03:00am 18.9 S 11 15 1013.0 - 0.0 - - 10 - - - -
20/02:30am 19.2 S 11 15 1013.4 - 0.0 - - 10 - - - -
20/02:00am 19.5 S 13 17 1013.7 - 0.0 - - 10 - - - -
20/01:30am 19.5 S 13 17 1014.1 - 0.0 - - 10 - - - -
20/01:00am 19.7 SSE 14 19 1014.6 - 0.0 - - 10 - - - -
20/12:30am 20.0 SSE 15 21 1014.9 - 0.0 - - 10 - - - -
20/12:00am 20.0 S 14 19 1015.1 - 0.0 - - 10 - - - -
 
Date/Time
WST
Temp
°C
Wind Pressure Rain since
9am
mm
Weather Cloud Vis
km
Sea
Height
m
Swell
Dir  Spd
kts
Gust
kts
hPa Trend Height
m
Period
s
Dir
19/11:30pm 20.4 S 17 23 1015.3 - 0.0 - - 10 - - - -
19/11:00pm 20.7 S 16 22 1015.5 - 0.0 - - 10 - - - -
19/10:30pm 20.8 S 16 22 1015.7 - 0.0 - - 10 - - - -
19/10:00pm 21.0 S 17 24 1015.9 - 0.0 - - 10 - - - -
19/09:30pm 21.1 S 16 21 1016.0 - 0.0 - - 10 - - - -
19/09:00pm 21.3 S 16 21 1016.0 - 0.0 - - 10 - - - -
19/08:30pm 21.8 S 19 26 1015.8 - 0.0 - - 10 - - - -
19/08:00pm 22.2 S 19 25 1015.5 - 0.0 - - 10 - - - -
19/07:30pm 22.6 S 16 23 1015.3 - 0.0 - - 10 - - - -
19/07:00pm 22.7 S 19 25 1014.9 - 0.0 - - 10 - - - -
19/06:30pm 23.0 SSW 21 27 1014.5 - 0.0 - - 10 - - - -
19/06:00pm 23.5 SSW 19 25 1014.3 - 0.0 - - 10 - - - -
19/05:30pm 24.3 SSW 19 27 1013.9 - 0.0 - - 10 - - - -
19/05:00pm 24.9 SSW 19 27 1013.7 - 0.0 - - 10 - - - -
19/04:30pm 25.6 SSW 20 25 1013.6 - 0.0 - - 10 - - - -
19/04:00pm 26.3 SSW 17 21 1013.7 - 0.0 - - 10 - - - -
19/03:30pm 27.0 SSW 17 21 1013.8 - 0.0 - - 10 - - - -
19/03:00pm 27.4 SSW 18 24 1013.8 - 0.0 Fine Clear 25 - - - -
19/02:30pm 28.2 S 18 25 1014.0 - 0.0 - - 10 - - - -
19/02:00pm 27.7 S 20 25 1014.3 - 0.0 - - 10 - - - -
19/01:30pm 25.7 S 20 25 1014.6 - 0.0 - - 10 - - - -
19/01:00pm 26.2 S 19 25 1014.8 - 0.0 - - 10 - - - -
19/12:30pm 25.0 SSW 18 23 1015.3 - 0.0 - - 10 - - - -
19/12:00pm 25.8 SSW 16 22 1015.6 - 0.0 - - 10 - - - -
19/11:47am 26.5 S 12 17 1015.9 - 0.0 - - 10 - - - -
19/11:30am 31.6 SE 12 21 1016.0 - 0.0 - - 10 - - - -
19/11:00am 30.2 ESE 16 20 1016.5 - 0.0 - - 10 - - - -
19/10:30am 29.0 ESE 13 19 1016.9 - 0.0 - - 10 - - - -
19/10:00am 27.6 SE 15 20 1017.3 - 0.0 - - 10 - - - -
19/09:30am 26.5 SE 16 20 1017.6 - 0.0 - - 10 - - - -
19/09:00am 25.1 SE 16 21 1017.5 - 0.0 Fine Clear 22 - - - -
19/08:30am 23.5 ESE 18 23 1017.4 - 0.0 - - 10 - - - -
19/08:00am 22.1 ESE 17 22 1017.5 - 0.0 - - 10 - - - -
19/07:30am 20.0 ESE 16 22 1017.6 - 0.0 - - 10 - - - -
19/07:00am 17.3 SE 11 15 1017.6 - 0.0 - - 10 - - - -
19/06:30am 15.6 SE 10 13 1017.4 - 0.0 - - 10 - - - -
19/06:00am 14.7 SSE 11 14 1017.1 - 0.0 - - 10 - - - -
19/05:30am 14.9 SSE 11 15 1016.7 - 0.0 - - 10 - - - -
19/05:00am 15.5 SSE 13 17 1016.7 - 0.0 - - 10 - - - -
19/04:30am 15.9 SSE 14 19 1016.6 - 0.0 - - 10 - - - -
19/04:00am 16.3 SSE 15 21 1016.3 - 0.0 - - 10 - - - -
19/03:30am 16.7 SSE 16 22 1016.3 - 0.0 - - 10 - - - -
19/03:00am 17.0 SSE 18 24 1016.2 - 0.0 - - 10 - - - -
19/02:30am 17.6 SSE 17 23 1016.2 - 0.0 - - 10 - - - -
19/02:00am 17.8 SSE 17 23 1016.8 - 0.0 - - 10 - - - -
19/01:30am 18.0 SSE 14 20 1017.0 - 0.0 - - 10 - - - -
19/01:00am 18.3 SSE 17 23 1017.3 - 0.0 - - 10 - - - -
19/12:30am 18.5 SSE 16 22 1017.5 - 0.0 - - 10 - - - -
19/12:00am 18.2 S 17 23 1017.7 - 0.0 - - 10 - - - -
 
Date/Time
WST
Temp
°C
Wind Pressure Rain since
9am
mm
Weather Cloud Vis
km
Sea
Height
m
Swell
Dir  Spd
kts
Gust
kts
hPa Trend Height
m
Period
s
Dir
18/11:30pm 18.4 SSE 19 25 1018.0 - 0.0 - - 10 - - - -
18/11:00pm 19.0 S 19 24 1018.3 - 0.0 - - 10 - - - -
18/10:30pm 19.0 S 19 25 1018.3 - 0.0 - - 10 - - - -
18/10:00pm 19.0 S 18 28 1018.4 - 0.0 - - 10 - - - -
18/09:30pm 19.1 S 20 27 1018.5 - 0.0 - - 10 - - - -
18/09:00pm 19.2 S 19 29 1018.3 - 0.0 - - 10 - - - -
18/08:30pm 19.5 S 21 29 1018.1 - 0.0 - - 10 - - - -
18/08:00pm 20.0 S 19 26 1017.7 - 0.0 - - 10 - - - -
18/07:30pm 20.7 S 22 28 1017.2 - 0.0 - - 10 - - - -
18/07:00pm 21.1 S 21 28 1016.9 - 0.0 - - 10 - - - -
18/06:30pm 21.5 S 19 28 1016.4 - 0.0 - - 10 - - - -
18/06:26pm 21.7 S 18 28 1016.3 - 0.0 - - 10 - - - -
18/06:00pm 22.4 S 21 26 1016.1 - 0.0 - - 10 - - - -
18/05:30pm 22.8 S 18 25 1015.7 - 0.0 - - 10 - - - -
18/05:00pm 23.6 S 21 27 1015.5 - 0.0 - - 10 - - - -
18/04:30pm 24.3 S 22 27 1015.4 - 0.0 - - 10 - - - -
18/04:00pm 24.6 S 22 27 1015.2 - 0.0 - - 10 - - - -
18/03:30pm 24.4 S 22 27 1015.3 - 0.0 - - 10 - - - -
18/03:00pm 24.9 S 21 26 1015.3 - 0.0 Fine Mostly clear 25 - - - -
18/02:30pm 25.1 S 21 27 1015.6 - 0.0 - - 10 - - - -
18/02:00pm 25.6 S 19 25 1016.0 - 0.0 - - 10 - - - -
18/01:30pm 25.0 S 20 27 1016.5 - 0.0 - - 10 - - - -
18/01:00pm 24.6 S 20 28 1017.0 - 0.0 - - 10 - - - -
18/12:30pm 24.3 S 19 25 1017.6 - 0.0 - - 10 - - - -
18/12:00pm 24.0 S 21 27 1017.9 - 0.0 - - 10 - - - -
18/11:30am 23.7 S 20 25 1018.4 - 0.0 - - 10 - - - -
18/11:00am 23.6 S 20 27 1018.7 - 0.0 - - 10 - - - -
18/10:30am 23.3 S 19 27 1019.0 - 0.0 - - 10 - - - -
18/10:00am 23.0 SSE 18 23 1019.0 - 0.0 - - 10 - - - -
18/09:30am 21.9 SSE 19 24 1019.2 - 0.0 - - 10 - - - -
18/09:00am 21.7 SSE 18 23 1019.2 - 0.4 Fine Partly cloudy 13 - - - -
18/08:30am 21.4 S 18 22 1019.0 - 0.4 - - 10 - - - -
18/08:00am 20.9 SE 16 21 1019.1 - 0.4 - - 10 - - - -
18/07:30am 20.2 SE 12 15 1018.9 - 0.4 - - 10 - - - -

Other Formats:

Comma delimited format used in spreadsheet applications
http://www.bom.gov.au/fwo/IDW60701/IDW60701.94300.axf

JavaScript Object Notation format (JSON) in row-major order
http://www.bom.gov.au/fwo/IDW60701/IDW60701.94300.json